createdAt,value
2023-03-16T00:01:09.986Z,2.70
2023-03-16T00:03:38.410Z,2.50
2023-03-16T00:06:07.368Z,2.60
2023-03-16T00:08:36.936Z,3.10
2023-03-16T00:11:08.613Z,5.20
2023-03-16T00:13:36.940Z,3.00
2023-03-16T00:16:05.630Z,3.80
2023-03-16T00:18:38.998Z,3.00
2023-03-16T00:21:07.964Z,1.50
2023-03-16T00:23:37.699Z,4.60
2023-03-16T00:26:08.997Z,2.70
2023-03-16T00:28:37.712Z,3.63
2023-03-16T00:31:07.118Z,3.90
2023-03-16T00:33:36.015Z,8.07
2023-03-16T00:36:09.449Z,2.80
2023-03-16T00:38:39.330Z,3.30
2023-03-16T00:41:09.700Z,2.47
2023-03-16T00:43:41.843Z,4.33
2023-03-16T00:46:11.623Z,2.83
2023-03-16T00:48:42.679Z,3.13
2023-03-16T00:51:14.938Z,4.83
2023-03-16T00:53:44.851Z,3.30
2023-03-16T00:56:15.358Z,2.70
2023-03-16T00:58:44.260Z,1.40
2023-03-16T01:01:14.981Z,3.27
2023-03-16T01:03:44.614Z,2.40
2023-03-16T01:06:15.288Z,3.10
2023-03-16T01:08:43.758Z,4.00
2023-03-16T01:11:16.652Z,2.80
2023-03-16T01:13:47.184Z,6.53
2023-03-16T01:16:16.057Z,4.77
2023-03-16T01:18:44.399Z,5.47
2023-03-16T01:21:14.880Z,2.43
2023-03-16T01:23:44.334Z,2.97
2023-03-16T01:26:17.802Z,2.40
2023-03-16T01:28:48.351Z,1.50
2023-03-16T01:31:17.162Z,3.63
2023-03-16T01:33:45.894Z,2.30
2023-03-16T01:36:20.111Z,2.70
2023-03-16T01:38:55.530Z,2.97
2023-03-16T01:41:28.267Z,2.93
2023-03-16T01:43:58.648Z,3.93
2023-03-16T01:46:29.589Z,3.33
2023-03-16T01:49:06.981Z,2.03
2023-03-16T01:51:40.110Z,2.70
2023-03-16T01:54:14.855Z,3.37
2023-03-16T01:56:47.107Z,3.27
2023-03-16T01:59:17.685Z,3.00
2023-03-16T02:01:48.772Z,4.35
2023-03-16T02:04:39.995Z,2.80
2023-03-16T02:07:10.195Z,3.70
2023-03-16T02:09:42.858Z,1.60
2023-03-16T02:12:18.573Z,2.27
2023-03-16T02:14:52.785Z,4.70
2023-03-16T02:17:23.849Z,1.87
2023-03-16T02:20:01.187Z,1.83
2023-03-16T02:22:30.289Z,2.50
2023-03-16T02:24:58.694Z,2.10
2023-03-16T02:27:36.410Z,2.40
2023-03-16T02:30:09.729Z,2.43
2023-03-16T02:32:45.888Z,3.00
2023-03-16T02:35:14.467Z,4.68
2023-03-16T02:37:43.686Z,3.10
2023-03-16T02:40:22.388Z,3.00
2023-03-16T02:42:56.818Z,4.47
2023-03-16T02:45:29.186Z,4.87
2023-03-16T02:47:58.002Z,3.47
2023-03-16T02:50:26.450Z,3.13
2023-03-16T02:52:54.907Z,2.72
2023-03-16T02:55:23.476Z,1.37
2023-03-16T02:57:52.379Z,2.17
2023-03-16T03:00:22.642Z,3.63
2023-03-16T03:02:54.182Z,5.80
2023-03-16T03:05:22.520Z,3.40
2023-03-16T03:07:51.391Z,3.20
2023-03-16T03:10:20.095Z,1.93
2023-03-16T03:12:49.832Z,3.13
2023-03-16T03:15:19.123Z,4.47
2023-03-16T03:18:04.155Z,3.33
2023-03-16T03:20:33.293Z,5.63
2023-03-16T03:23:03.185Z,2.65
2023-03-16T03:25:34.972Z,5.20
2023-03-16T03:28:06.047Z,3.73
2023-03-16T03:30:34.461Z,3.75
2023-03-16T03:33:04.456Z,5.63
2023-03-16T03:35:33.024Z,1.90
2023-03-16T03:38:01.787Z,5.57
2023-03-16T03:40:30.546Z,5.68
2023-03-16T03:43:02.842Z,2.30
2023-03-16T03:45:32.836Z,2.63
2023-03-16T03:48:01.214Z,2.28
2023-03-16T03:50:30.949Z,1.87
2023-03-16T03:53:19.848Z,3.05
2023-03-16T03:56:11.102Z,2.03
2023-03-16T03:58:41.091Z,2.80
2023-03-16T04:01:10.324Z,1.40
2023-03-16T04:03:38.789Z,2.95
2023-03-16T04:06:10.247Z,1.97
2023-03-16T04:08:38.605Z,2.23
2023-03-16T04:11:11.992Z,3.17
2023-03-16T04:13:41.652Z,7.47
2023-03-16T04:16:10.783Z,2.58
2023-03-16T04:18:45.498Z,2.13
2023-03-16T04:21:17.193Z,2.03
2023-03-16T04:23:48.294Z,1.70
2023-03-16T04:26:17.998Z,2.17
2023-03-16T04:28:49.022Z,1.65
2023-03-16T04:31:20.372Z,2.47
2023-03-16T04:33:49.559Z,1.73
2023-03-16T04:36:19.660Z,2.20
2023-03-16T04:38:47.965Z,3.28
2023-03-16T04:41:18.259Z,3.42
2023-03-16T04:43:55.440Z,2.87
2023-03-16T04:46:26.906Z,4.70
2023-03-16T04:48:59.277Z,4.00
2023-03-16T04:51:31.610Z,4.10
2023-03-16T04:54:11.512Z,3.70
2023-03-16T04:56:42.791Z,3.20
2023-03-16T05:00:14.044Z,2.10
2023-03-16T05:02:48.861Z,3.40
2023-03-16T05:05:17.923Z,2.40
2023-03-16T05:07:47.829Z,1.27
2023-03-16T05:10:18.919Z,2.20
2023-03-16T05:12:48.316Z,0.82
2023-03-16T05:15:17.050Z,2.65
2023-03-16T05:17:49.345Z,3.45
2023-03-16T05:20:18.237Z,8.23
2023-03-16T05:22:53.571Z,2.30
2023-03-16T05:25:29.396Z,2.75
2023-03-16T05:28:00.449Z,3.50
2023-03-16T05:30:54.993Z,1.92
2023-03-16T05:33:28.032Z,3.70
2023-03-16T05:36:03.866Z,6.60
2023-03-16T05:38:36.846Z,1.55
2023-03-16T05:41:09.593Z,2.00
2023-03-16T05:43:58.820Z,1.50
2023-03-16T05:46:33.568Z,4.43
2023-03-16T05:49:04.995Z,3.75
2023-03-16T05:51:33.469Z,1.70
2023-03-16T05:54:05.359Z,3.97
2023-03-16T06:00:46.849Z,1.23
2023-03-16T06:04:27.301Z,1.95
2023-03-16T06:07:07.108Z,1.30
2023-03-16T06:10:05.256Z,1.03
2023-03-16T06:19:42.211Z,1.00
2023-03-16T06:22:11.316Z,0.70
2023-03-16T06:24:41.484Z,3.07
2023-03-16T06:27:11.761Z,3.25
2023-03-16T06:29:55.360Z,11.50
2023-03-16T06:32:23.882Z,1.80
2023-03-16T06:34:52.706Z,2.20
2023-03-16T06:37:21.880Z,4.73
2023-03-16T06:39:51.120Z,2.57
2023-03-16T06:42:20.988Z,3.47
2023-03-16T06:44:49.390Z,1.37
2023-03-16T06:47:19.762Z,0.80
2023-03-16T06:49:48.211Z,2.13
2023-03-16T06:52:21.290Z,6.50
2023-03-16T06:54:49.850Z,12.40
2023-03-16T06:57:21.415Z,2.67
2023-03-16T06:59:52.346Z,4.87
2023-03-16T07:02:23.620Z,1.60
2023-03-16T07:04:52.626Z,2.83
2023-03-16T07:07:21.999Z,2.03
2023-03-16T07:09:50.345Z,2.80
2023-03-16T07:12:20.121Z,2.77
2023-03-16T07:14:51.800Z,2.60
2023-03-16T07:17:23.811Z,5.77
2023-03-16T07:19:52.738Z,1.33
2023-03-16T07:22:22.139Z,2.00
2023-03-16T07:24:56.169Z,0.93
2023-03-16T07:27:27.553Z,2.40
2023-03-16T07:29:56.406Z,2.07
2023-03-16T07:32:24.929Z,1.57
2023-03-16T07:34:53.759Z,1.60
2023-03-16T07:37:25.865Z,2.00
2023-03-16T07:39:58.878Z,2.97
2023-03-16T07:42:29.600Z,0.70
2023-03-16T07:45:05.539Z,1.70
2023-03-16T07:47:34.780Z,2.17
2023-03-16T07:50:13.467Z,1.50
2023-03-16T07:57:21.744Z,6.83
2023-03-16T07:59:53.352Z,1.60
2023-03-16T08:02:22.806Z,0.83
2023-03-16T08:04:51.794Z,1.43
2023-03-16T08:07:20.509Z,1.03
2023-03-16T08:10:12.525Z,4.30
2023-03-16T08:12:46.666Z,1.83
2023-03-16T08:15:16.742Z,1.70
2023-03-16T08:17:45.912Z,2.23
2023-03-16T08:20:20.208Z,2.60
2023-03-16T08:22:49.763Z,1.40
2023-03-16T08:25:21.884Z,1.70
2023-03-16T08:28:06.351Z,1.67
2023-03-16T08:30:36.420Z,1.40
2023-03-16T08:33:22.579Z,1.30
2023-03-16T08:35:52.402Z,1.90
2023-03-16T08:38:23.062Z,2.13
2023-03-16T08:40:53.186Z,1.73
2023-03-16T08:43:24.071Z,2.00
2023-03-16T08:45:56.044Z,1.63
2023-03-16T08:48:28.874Z,4.70
2023-03-16T08:50:57.297Z,1.07
2023-03-16T08:53:25.566Z,1.40
2023-03-16T08:55:53.854Z,1.93
2023-03-16T08:58:22.574Z,1.63
2023-03-16T09:00:50.891Z,1.30
2023-03-16T09:03:21.650Z,1.93
2023-03-16T09:05:49.920Z,3.20
2023-03-16T09:08:18.571Z,1.10
2023-03-16T09:10:47.097Z,1.43
2023-03-16T09:13:16.407Z,3.43
2023-03-16T09:15:44.731Z,1.73
2023-03-16T09:18:13.772Z,1.30
2023-03-16T09:20:43.911Z,1.87
2023-03-16T09:23:14.124Z,2.60
2023-03-16T09:25:42.672Z,1.73
2023-03-16T09:28:11.404Z,1.30
2023-03-16T09:30:39.717Z,1.40
2023-03-16T09:33:08.225Z,1.17
2023-03-16T09:35:37.195Z,1.30
2023-03-16T09:38:07.352Z,0.87
2023-03-16T09:40:36.485Z,1.50
2023-03-16T09:43:24.443Z,1.50
2023-03-16T09:45:59.953Z,1.30
2023-03-16T09:48:34.003Z,0.90
2023-03-16T09:51:03.683Z,1.93
2023-03-16T09:53:35.680Z,2.00
2023-03-16T09:56:06.265Z,0.93
2023-03-16T09:58:34.701Z,1.30
2023-03-16T10:01:10.879Z,1.40
2023-03-16T10:04:00.813Z,1.23
2023-03-16T10:06:29.596Z,1.00
2023-03-16T10:09:05.828Z,6.10
2023-03-16T10:11:37.286Z,1.60
2023-03-16T10:14:17.679Z,1.50
2023-03-16T10:16:50.623Z,1.50
2023-03-16T10:19:21.665Z,1.83
2023-03-16T10:21:50.566Z,1.47
2023-03-16T10:24:29.917Z,1.97
2023-03-16T10:27:00.672Z,3.03
2023-03-16T10:29:32.582Z,1.63
2023-03-16T10:32:03.459Z,2.40
2023-03-16T10:34:32.434Z,1.20
2023-03-16T10:37:03.079Z,1.60
2023-03-16T10:39:43.072Z,1.13
2023-03-16T10:42:17.969Z,3.00
2023-03-16T10:44:46.733Z,2.30
2023-03-16T10:47:20.115Z,2.03
2023-03-16T10:49:51.398Z,2.10
2023-03-16T10:52:22.323Z,2.67
2023-03-16T10:54:54.565Z,1.10
2023-03-16T10:57:26.633Z,1.20
2023-03-16T10:59:56.885Z,1.40
2023-03-16T11:02:31.982Z,2.87
2023-03-16T11:05:01.037Z,1.80
2023-03-16T11:07:29.474Z,1.63
2023-03-16T11:09:59.821Z,1.60
2023-03-16T11:12:30.828Z,1.43
2023-03-16T11:15:07.501Z,1.47
2023-03-16T11:17:41.578Z,0.83
2023-03-16T11:20:17.746Z,1.37
2023-03-16T11:22:47.303Z,1.30
2023-03-16T11:25:21.752Z,1.77
2023-03-16T11:27:54.251Z,5.23
2023-03-16T11:30:29.088Z,3.10
2023-03-16T11:33:00.411Z,1.50
2023-03-16T11:35:34.840Z,1.07
2023-03-16T11:38:14.381Z,1.57
2023-03-16T11:40:54.060Z,2.23
2023-03-16T11:43:54.160Z,1.90
2023-03-16T11:46:25.478Z,1.23
2023-03-16T11:49:02.263Z,4.10
2023-03-16T11:51:37.893Z,3.60
2023-03-16T11:54:18.647Z,4.40
2023-03-16T11:56:51.737Z,2.03
2023-03-16T11:59:46.277Z,8.80
2023-03-16T12:02:43.855Z,1.73
2023-03-16T12:05:43.869Z,1.90
2023-03-16T12:08:30.705Z,3.07
2023-03-16T12:11:02.670Z,1.47
2023-03-16T12:13:40.188Z,2.10
2023-03-16T12:16:12.933Z,2.20
2023-03-16T12:18:44.838Z,1.43
2023-03-16T12:21:16.002Z,4.60
2023-03-16T12:23:58.666Z,1.93
2023-03-16T12:26:30.351Z,3.03
2023-03-16T12:29:01.349Z,1.90
2023-03-16T12:31:37.766Z,1.60
2023-03-16T12:34:11.133Z,3.93
2023-03-16T12:36:58.338Z,4.97
2023-03-16T12:39:37.496Z,1.13
2023-03-16T12:42:16.772Z,1.33
2023-03-16T12:44:49.322Z,3.40
2023-03-16T12:47:24.186Z,2.30
2023-03-16T12:49:53.114Z,2.07
2023-03-16T12:52:21.673Z,1.70
2023-03-16T12:54:54.261Z,1.60
2023-03-16T12:57:27.130Z,1.20
2023-03-16T13:00:00.611Z,1.17
2023-03-16T13:02:32.040Z,1.53
2023-03-16T13:05:02.964Z,2.33
2023-03-16T13:07:32.690Z,2.07
2023-03-16T13:10:08.348Z,1.77
2023-03-16T13:12:38.472Z,1.07
2023-03-16T13:15:29.977Z,1.80
2023-03-16T13:18:08.204Z,1.00
2023-03-16T13:20:50.954Z,2.10
2023-03-16T13:23:24.861Z,1.20
2023-03-16T13:26:06.863Z,1.70
2023-03-16T13:28:38.860Z,1.00
2023-03-16T13:31:21.749Z,2.03
2023-03-16T13:33:51.698Z,1.10
2023-03-16T13:36:20.886Z,2.20
2023-03-16T13:38:57.749Z,2.20
2023-03-16T13:41:26.124Z,1.63
2023-03-16T13:43:54.354Z,1.33
2023-03-16T13:46:30.179Z,2.40
2023-03-16T13:49:02.347Z,1.47
2023-03-16T13:51:32.103Z,1.20
2023-03-16T13:54:00.605Z,1.43
2023-03-16T13:56:31.857Z,1.47
2023-03-16T13:59:01.142Z,1.80
2023-03-16T14:01:32.894Z,4.27
2023-03-16T14:04:08.620Z,2.80
2023-03-16T14:06:38.175Z,4.87
2023-03-16T14:09:09.381Z,4.93
2023-03-16T14:11:37.771Z,1.77
2023-03-16T14:14:16.045Z,3.07
2023-03-16T14:16:45.870Z,1.20
2023-03-16T14:19:19.731Z,2.40
2023-03-16T14:21:48.356Z,4.20
2023-03-16T14:24:26.416Z,2.30
2023-03-16T14:26:55.018Z,1.30
2023-03-16T14:29:27.673Z,1.50
2023-03-16T14:31:57.908Z,1.63
2023-03-16T14:34:30.796Z,3.13
2023-03-16T14:37:19.363Z,1.57
2023-03-16T14:39:48.005Z,1.33
2023-03-16T14:42:21.540Z,1.97
2023-03-16T14:44:52.691Z,1.80
2023-03-16T14:47:25.809Z,1.17
2023-03-16T14:49:54.239Z,1.30
2023-03-16T14:52:27.340Z,1.13
2023-03-16T14:54:55.876Z,1.70
2023-03-16T14:57:24.596Z,1.77
2023-03-16T14:59:52.910Z,1.60
2023-03-16T15:02:25.459Z,1.17
2023-03-16T15:04:54.893Z,2.43
2023-03-16T15:07:26.669Z,1.90
2023-03-16T15:09:56.160Z,1.77
2023-03-16T15:12:26.354Z,1.30
2023-03-16T15:15:12.485Z,2.80
2023-03-16T15:17:42.520Z,2.30
2023-03-16T15:20:13.249Z,2.53
2023-03-16T15:23:06.205Z,1.63
2023-03-16T15:25:37.891Z,1.50
2023-03-16T15:28:13.704Z,1.63
2023-03-16T15:30:43.385Z,0.90
2023-03-16T15:33:14.154Z,1.90
2023-03-16T15:35:44.606Z,2.00
2023-03-16T15:38:19.466Z,1.13
2023-03-16T15:40:54.130Z,1.47
2023-03-16T15:43:25.164Z,1.90
2023-03-16T15:45:54.298Z,2.03
2023-03-16T15:48:28.400Z,1.10
2023-03-16T15:50:58.915Z,1.97
2023-03-16T15:53:32.244Z,1.53
2023-03-16T15:56:04.368Z,1.60
2023-03-16T15:58:35.350Z,2.67
2023-03-16T16:01:05.775Z,1.10
2023-03-16T16:03:38.190Z,2.47
2023-03-16T16:06:17.860Z,1.20
2023-03-16T16:08:48.204Z,4.20
2023-03-16T16:11:25.145Z,1.37
2023-03-16T16:13:58.253Z,1.20
2023-03-16T16:16:29.471Z,1.10
2023-03-16T16:19:03.523Z,1.63
2023-03-16T16:21:35.333Z,1.73
2023-03-16T16:24:04.627Z,2.93
2023-03-16T16:29:27.922Z,2.87
2023-03-16T16:31:56.478Z,3.07
2023-03-16T16:34:29.187Z,1.70
2023-03-16T16:37:00.798Z,3.50
2023-03-16T16:39:32.956Z,1.33
2023-03-16T16:42:01.958Z,6.80
2023-03-16T16:44:36.910Z,1.70
2023-03-16T16:47:21.287Z,2.57
2023-03-16T16:49:53.554Z,2.97
2023-03-16T16:52:22.806Z,2.83
2023-03-16T16:54:51.990Z,1.77
2023-03-16T16:57:21.598Z,4.43
2023-03-16T16:59:51.495Z,4.20
2023-03-16T17:02:25.527Z,4.10
2023-03-16T17:04:57.016Z,1.80
2023-03-16T17:07:25.955Z,2.70
2023-03-16T17:10:01.477Z,1.60
2023-03-16T17:12:29.802Z,2.63
2023-03-16T17:14:59.059Z,2.30
2023-03-16T17:17:27.617Z,2.93
2023-03-16T17:20:06.598Z,2.57
2023-03-16T17:22:36.731Z,3.00
2023-03-16T17:25:15.200Z,2.60
2023-03-16T17:27:49.015Z,4.67
2023-03-16T17:30:23.946Z,2.63
2023-03-16T17:32:55.295Z,3.10
2023-03-16T17:35:28.277Z,3.77
2023-03-16T17:38:01.096Z,3.90
2023-03-16T17:40:32.549Z,5.50
2023-03-16T17:43:03.226Z,6.90
2023-03-16T17:45:33.165Z,8.23
2023-03-16T17:48:03.046Z,6.17
2023-03-16T17:50:35.622Z,4.37
2023-03-16T17:53:05.715Z,6.77
2023-03-16T17:55:39.335Z,9.50
2023-03-16T17:58:25.087Z,4.50
2023-03-16T18:00:57.143Z,9.80
2023-03-16T18:03:31.018Z,7.23
2023-03-16T18:06:06.208Z,6.50
2023-03-16T18:08:37.170Z,6.40
2023-03-16T18:11:15.264Z,5.87
2023-03-16T18:13:45.545Z,7.37
2023-03-16T18:16:20.442Z,8.20
2023-03-16T18:18:53.594Z,8.17
2023-03-16T18:21:26.307Z,9.77
2023-03-16T18:23:57.887Z,9.00
2023-03-16T18:26:29.704Z,7.73
2023-03-16T18:29:01.287Z,8.30
2023-03-16T18:31:31.149Z,7.63
2023-03-16T18:34:04.161Z,8.30
2023-03-16T18:36:41.720Z,8.03
2023-03-16T18:39:20.145Z,6.57
2023-03-16T18:41:51.317Z,5.60
2023-03-16T18:44:23.558Z,6.00
2023-03-16T18:46:57.462Z,5.37
2023-03-16T18:49:34.595Z,8.77
2023-03-16T18:52:14.257Z,8.40
2023-03-16T18:54:46.794Z,5.87
2023-03-16T18:57:19.932Z,6.70
2023-03-16T18:59:51.945Z,6.47
2023-03-16T19:02:30.710Z,6.70
2023-03-16T19:05:05.191Z,6.93
2023-03-16T19:07:40.423Z,7.77
2023-03-16T19:10:24.071Z,9.70
2023-03-16T19:12:55.601Z,7.27
2023-03-16T19:15:32.385Z,6.50
2023-03-16T19:18:03.494Z,6.37
2023-03-16T19:20:40.227Z,4.67
2023-03-16T19:23:22.107Z,7.23
2023-03-16T19:25:55.430Z,6.87
2023-03-16T19:28:30.207Z,6.27
2023-03-16T19:31:02.656Z,8.03
2023-03-16T19:33:34.378Z,7.20
2023-03-16T19:36:05.990Z,7.10
2023-03-16T19:38:42.141Z,8.10
2023-03-16T19:41:23.813Z,9.23
2023-03-16T19:44:00.346Z,11.97
2023-03-16T19:46:32.316Z,8.57
2023-03-16T19:49:04.486Z,14.60
2023-03-16T19:51:34.425Z,6.20
2023-03-16T19:54:24.036Z,7.80
2023-03-16T19:56:57.474Z,10.93
2023-03-16T19:59:31.482Z,8.27
2023-03-16T20:02:03.334Z,11.23
2023-03-16T20:04:35.733Z,7.07
2023-03-16T20:07:14.666Z,15.47
2023-03-16T20:09:53.377Z,11.83
2023-03-16T20:12:28.018Z,7.70
2023-03-16T20:15:00.222Z,10.43
2023-03-16T20:17:34.660Z,11.30
2023-03-16T20:20:06.581Z,9.10
2023-03-16T20:22:44.345Z,8.10
2023-03-16T20:25:18.511Z,13.60
2023-03-16T20:27:52.547Z,10.50
2023-03-16T20:30:27.735Z,11.17
2023-03-16T20:33:00.451Z,7.67
2023-03-16T20:35:34.109Z,9.10
2023-03-16T20:38:06.644Z,7.37
2023-03-16T20:40:42.573Z,9.07
2023-03-16T20:43:26.501Z,11.13
2023-03-16T20:46:03.690Z,7.33
2023-03-16T20:48:34.341Z,15.63
2023-03-16T20:51:09.908Z,10.50
2023-03-16T20:53:42.293Z,9.30
2023-03-16T20:56:18.661Z,9.70
2023-03-16T20:58:50.162Z,8.70
2023-03-16T21:01:29.982Z,5.60
2023-03-16T21:04:00.641Z,8.00
2023-03-16T21:06:32.465Z,10.23
2023-03-16T21:09:03.771Z,3.90
2023-03-16T21:11:41.776Z,8.13
2023-03-16T21:14:23.511Z,9.83
2023-03-16T21:16:53.361Z,5.13
2023-03-16T21:19:24.553Z,6.73
2023-03-16T21:21:54.504Z,8.30
2023-03-16T21:24:23.454Z,5.40
2023-03-16T21:26:54.715Z,10.70
2023-03-16T21:29:24.315Z,7.00
2023-03-16T21:31:58.588Z,6.93
2023-03-16T21:34:36.144Z,9.73
2023-03-16T21:37:15.284Z,8.70
2023-03-16T21:39:45.729Z,9.47
2023-03-16T21:43:01.072Z,7.23
2023-03-16T21:45:44.529Z,9.20
2023-03-16T21:48:24.169Z,4.23
2023-03-16T21:51:02.245Z,7.20
2023-03-16T21:53:33.877Z,5.63
2023-03-16T21:56:02.187Z,8.57
2023-03-16T21:58:30.596Z,7.40
2023-03-16T22:01:11.944Z,8.80
2023-03-16T22:03:51.585Z,5.47
2023-03-16T22:06:21.915Z,9.70
2023-03-16T22:08:51.931Z,10.00
2023-03-16T22:11:25.267Z,5.50
2023-03-16T22:14:12.627Z,6.80
2023-03-16T22:16:42.666Z,10.23
2023-03-16T22:19:23.277Z,4.07
2023-03-16T22:21:53.918Z,6.53
2023-03-16T22:24:33.247Z,10.33
2023-03-16T22:27:30.970Z,10.10
2023-03-16T22:30:11.988Z,7.73
2023-03-16T22:32:48.483Z,4.60
2023-03-16T22:35:28.575Z,1.33
2023-03-16T22:38:10.106Z,7.10
2023-03-16T22:40:43.173Z,6.43
2023-03-16T22:43:36.266Z,13.10
2023-03-16T22:46:08.458Z,7.13
2023-03-16T22:48:41.456Z,5.30
2023-03-16T22:51:30.847Z,8.57
2023-03-16T22:57:23.813Z,8.33
2023-03-16T22:59:56.123Z,9.50
2023-03-16T23:02:32.348Z,7.90
2023-03-16T23:05:02.109Z,6.10
2023-03-16T23:07:41.625Z,5.30
2023-03-16T23:10:23.628Z,12.77
2023-03-16T23:12:57.466Z,7.13
2023-03-16T23:15:35.777Z,5.03
2023-03-16T23:18:19.096Z,5.83
2023-03-16T23:20:54.806Z,5.10
2023-03-16T23:23:27.844Z,7.70
2023-03-16T23:25:58.356Z,9.83
2023-03-16T23:28:29.221Z,7.73
2023-03-16T23:30:57.515Z,6.47
2023-03-16T23:33:27.165Z,4.83
2023-03-16T23:35:57.208Z,5.70
2023-03-16T23:38:26.150Z,13.03
2023-03-16T23:40:54.656Z,6.27
2023-03-16T23:43:23.028Z,11.10
2023-03-16T23:45:51.321Z,2.83
2023-03-16T23:48:21.878Z,4.90
2023-03-16T23:50:52.362Z,6.93
2023-03-16T23:53:22.815Z,4.77
2023-03-16T23:55:51.593Z,3.57
2023-03-16T23:58:20.218Z,9.70
